createdAt,value
2022-11-27T00:01:19.090Z,87.97
2022-11-27T00:03:47.852Z,87.28
2022-11-27T00:06:16.165Z,85.52
2022-11-27T00:08:43.401Z,84.92
2022-11-27T00:11:11.985Z,86.49
2022-11-27T00:13:38.955Z,86.17
2022-11-27T00:16:06.552Z,87.68
2022-11-27T00:18:33.734Z,87.59
2022-11-27T00:21:04.318Z,86.51
2022-11-27T00:23:31.612Z,87.48
2022-11-27T00:25:58.188Z,86.85
2022-11-27T00:28:25.211Z,87.48
2022-11-27T00:30:51.746Z,87.12
2022-11-27T00:33:18.755Z,86.48
2022-11-27T00:35:45.158Z,87.49
2022-11-27T00:38:12.982Z,87.92
2022-11-27T00:40:39.547Z,87.51
2022-11-27T00:43:06.003Z,86.46
2022-11-27T00:45:32.414Z,87.78
2022-11-27T00:47:59.171Z,87.47
2022-11-27T00:50:25.599Z,86.92
2022-11-27T00:52:52.017Z,88.42
2022-11-27T00:55:20.041Z,87.91
2022-11-27T00:57:46.544Z,86.66
2022-11-27T01:00:14.447Z,86.55
2022-11-27T01:02:40.994Z,86.92
2022-11-27T01:05:08.157Z,86.68
2022-11-27T01:07:34.621Z,86.23
2022-11-27T01:10:01.121Z,87.96
2022-11-27T01:12:28.892Z,85.72
2022-11-27T01:14:55.814Z,86.20
2022-11-27T01:17:22.373Z,85.72
2022-11-27T01:19:48.794Z,84.75
2022-11-27T01:22:15.208Z,85.23
2022-11-27T01:24:44.563Z,85.12
2022-11-27T01:27:10.954Z,86.64
2022-11-27T01:29:38.947Z,85.56
2022-11-27T01:32:05.599Z,84.79
2022-11-27T01:34:32.008Z,85.52
2022-11-27T01:36:58.507Z,85.81
2022-11-27T01:39:24.925Z,85.57
2022-11-27T01:41:51.349Z,85.69
2022-11-27T01:44:52.102Z,85.70
2022-11-27T01:47:29.302Z,85.62
2022-11-27T01:50:05.885Z,84.63
2022-11-27T01:52:35.318Z,85.71
2022-11-27T01:55:06.597Z,84.47
2022-11-27T01:57:45.449Z,84.08
2022-11-27T02:00:16.656Z,83.70
2022-11-27T02:02:44.449Z,84.30
2022-11-27T02:05:14.707Z,82.68
2022-11-27T02:07:41.228Z,83.11
2022-11-27T02:10:08.205Z,83.28
2022-11-27T02:12:44.344Z,80.67
2022-11-27T02:15:19.808Z,83.75
2022-11-27T02:17:51.731Z,84.15
2022-11-27T02:20:34.752Z,82.89
2022-11-27T02:23:16.309Z,82.13
2022-11-27T02:26:05.842Z,83.02
2022-11-27T02:28:42.973Z,82.63
2022-11-27T02:31:16.097Z,82.23
2022-11-27T02:33:47.427Z,83.49
2022-11-27T02:36:18.384Z,83.24
2022-11-27T02:38:49.452Z,82.58
2022-11-27T02:41:21.345Z,82.95
2022-11-27T02:43:50.273Z,83.27
2022-11-27T02:46:20.515Z,83.66
2022-11-27T02:48:49.620Z,82.20
2022-11-27T02:51:20.187Z,82.95
2022-11-27T02:53:50.586Z,80.32
2022-11-27T02:56:21.809Z,80.84
2022-11-27T02:58:49.965Z,81.07
2022-11-27T03:01:19.889Z,81.84
2022-11-27T03:03:51.942Z,82.04
2022-11-27T03:06:23.962Z,82.51
2022-11-27T03:08:55.205Z,81.60
2022-11-27T03:11:22.022Z,83.40
2022-11-27T03:13:52.737Z,82.78
2022-11-27T03:16:29.453Z,81.17
2022-11-27T03:19:02.621Z,82.81
2022-11-27T03:21:34.678Z,83.17
2022-11-27T03:24:01.381Z,82.33
2022-11-27T03:26:28.046Z,83.44
2022-11-27T03:28:56.947Z,82.57
2022-11-27T03:31:25.385Z,83.90
2022-11-27T03:33:53.024Z,82.28
2022-11-27T03:36:21.521Z,83.67
2022-11-27T03:38:51.160Z,82.61
2022-11-27T03:41:24.650Z,83.29
2022-11-27T03:44:00.719Z,82.90
2022-11-27T03:46:40.055Z,82.97
2022-11-27T03:49:14.069Z,80.79
2022-11-27T03:51:52.524Z,81.66
2022-11-27T03:54:31.093Z,79.63
2022-11-27T03:57:01.934Z,80.60
2022-11-27T03:59:32.435Z,81.25
2022-11-27T04:02:00.222Z,82.26
2022-11-27T04:04:26.719Z,79.16
2022-11-27T04:06:53.165Z,82.04
2022-11-27T04:09:19.607Z,79.69
2022-11-27T04:11:46.091Z,80.86
2022-11-27T04:14:12.509Z,79.62
2022-11-27T04:16:38.966Z,81.13
2022-11-27T04:19:06.746Z,80.30
2022-11-27T04:21:33.151Z,80.82
2022-11-27T04:23:59.541Z,80.50
2022-11-27T04:26:26.082Z,79.39
2022-11-27T04:28:52.597Z,80.43
2022-11-27T04:31:19.100Z,80.87
2022-11-27T04:33:45.584Z,81.83
2022-11-27T04:36:13.376Z,80.99
2022-11-27T04:38:39.773Z,79.99
2022-11-27T04:41:06.448Z,81.22
2022-11-27T04:43:32.914Z,80.24
2022-11-27T04:45:59.338Z,79.14
2022-11-27T04:48:25.872Z,79.60
2022-11-27T04:50:54.412Z,78.63
2022-11-27T04:53:22.125Z,77.82
2022-11-27T04:55:48.720Z,79.27
2022-11-27T04:58:15.128Z,78.04
2022-11-27T05:00:41.585Z,78.68
2022-11-27T05:03:08.201Z,79.41
2022-11-27T05:05:34.813Z,79.32
2022-11-27T05:08:01.379Z,80.30
2022-11-27T05:10:29.194Z,79.70
2022-11-27T05:12:55.594Z,80.09
2022-11-27T05:15:22.354Z,80.05
2022-11-27T05:17:48.760Z,79.63
2022-11-27T05:20:15.348Z,79.53
2022-11-27T05:22:41.772Z,79.81
2022-11-27T05:25:09.055Z,80.88
2022-11-27T05:27:36.804Z,78.01
2022-11-27T05:30:04.039Z,79.24
2022-11-27T05:32:30.486Z,79.36
2022-11-27T05:34:56.901Z,79.24
2022-11-27T05:37:23.314Z,80.98
2022-11-27T05:39:49.734Z,79.11
2022-11-27T05:42:16.237Z,79.24
2022-11-27T05:44:43.979Z,80.02
2022-11-27T05:47:10.506Z,79.86
2022-11-27T05:49:37.188Z,80.13
2022-11-27T05:52:03.849Z,80.32
2022-11-27T05:54:30.275Z,78.85
2022-11-27T05:56:56.679Z,78.75
2022-11-27T05:59:23.081Z,79.77
2022-11-27T06:01:51.092Z,80.14
2022-11-27T06:04:18.021Z,80.29
2022-11-27T06:06:44.462Z,79.90
2022-11-27T06:09:13.021Z,80.03
2022-11-27T06:11:40.398Z,80.02
2022-11-27T06:14:07.894Z,81.47
2022-11-27T06:16:34.378Z,81.63
2022-11-27T06:19:02.195Z,81.40
2022-11-27T06:21:28.602Z,81.10
2022-11-27T06:23:56.277Z,79.98
2022-11-27T06:26:24.934Z,81.51
2022-11-27T06:28:51.892Z,80.18
2022-11-27T06:31:20.320Z,81.75
2022-11-27T06:33:47.462Z,81.66
2022-11-27T06:36:15.795Z,81.72
2022-11-27T06:38:43.047Z,80.14
2022-11-27T06:41:12.065Z,79.49
2022-11-27T06:43:38.758Z,79.62
2022-11-27T06:46:07.156Z,79.94
2022-11-27T06:48:33.999Z,79.84
2022-11-27T06:51:01.629Z,80.33
2022-11-27T06:53:29.841Z,80.10
2022-11-27T06:55:56.485Z,81.09
2022-11-27T06:58:27.774Z,81.42
2022-11-27T07:00:58.107Z,82.17
2022-11-27T07:03:24.578Z,81.08
2022-11-27T07:05:50.972Z,80.36
2022-11-27T07:08:17.415Z,80.99
2022-11-27T07:10:45.234Z,80.85
2022-11-27T07:13:11.671Z,80.32
2022-11-27T07:15:38.104Z,79.58
2022-11-27T07:18:04.575Z,82.25
2022-11-27T07:20:32.543Z,81.91
2022-11-27T07:22:58.969Z,82.64
2022-11-27T07:25:25.519Z,82.96
2022-11-27T07:27:53.285Z,83.78
2022-11-27T07:30:20.520Z,83.11
2022-11-27T07:32:46.919Z,83.17
2022-11-27T07:35:13.355Z,83.62
2022-11-27T07:37:39.807Z,82.93
2022-11-27T07:40:07.427Z,84.34
2022-11-27T07:42:38.413Z,83.95
2022-11-27T07:45:08.811Z,83.34
2022-11-27T07:47:35.421Z,83.11
2022-11-27T07:50:01.893Z,82.60
2022-11-27T07:52:28.343Z,82.45
2022-11-27T07:54:54.824Z,82.74
2022-11-27T07:57:21.313Z,82.99
2022-11-27T07:59:47.975Z,82.57
2022-11-27T08:02:15.950Z,81.89
2022-11-27T08:04:42.710Z,82.43
2022-11-27T08:07:09.666Z,82.74
2022-11-27T08:09:36.138Z,80.75
2022-11-27T08:12:02.568Z,81.93
2022-11-27T08:14:29.086Z,81.01
2022-11-27T08:16:55.909Z,79.79
2022-11-27T08:19:24.062Z,80.91
2022-11-27T08:21:50.845Z,81.50
2022-11-27T08:24:17.263Z,80.41
2022-11-27T08:26:43.802Z,80.96
2022-11-27T08:29:11.358Z,80.66
2022-11-27T08:31:37.876Z,79.34
2022-11-27T08:34:04.377Z,78.99
2022-11-27T08:36:32.136Z,78.25
2022-11-27T08:38:58.528Z,78.93
2022-11-27T08:41:25.107Z,78.41
2022-11-27T08:43:51.902Z,77.57
2022-11-27T08:46:18.381Z,78.13
2022-11-27T08:48:44.996Z,78.34
2022-11-27T08:51:13.500Z,78.01
2022-11-27T08:53:41.360Z,77.64
2022-11-27T08:56:09.663Z,78.36
2022-11-27T08:58:36.345Z,77.05
2022-11-27T09:01:08.646Z,77.24
2022-11-27T09:03:35.312Z,78.13
2022-11-27T09:06:01.837Z,76.82
2022-11-27T09:08:28.399Z,77.75
2022-11-27T09:10:59.302Z,77.69
2022-11-27T09:13:25.837Z,77.68
2022-11-27T09:15:52.247Z,77.17
2022-11-27T09:18:18.746Z,77.30
2022-11-27T09:20:45.208Z,77.25
2022-11-27T09:23:14.473Z,75.97
2022-11-27T09:25:41.262Z,76.47
2022-11-27T09:28:09.028Z,76.33
2022-11-27T09:30:35.431Z,77.05
2022-11-27T09:33:01.816Z,77.48
2022-11-27T09:35:28.298Z,76.36
2022-11-27T09:37:54.775Z,76.06
2022-11-27T09:40:21.535Z,77.62
2022-11-27T09:42:53.460Z,78.75
2022-11-27T09:45:24.387Z,78.37
2022-11-27T09:47:55.143Z,79.14
2022-11-27T09:50:26.141Z,77.09
2022-11-27T09:52:54.922Z,76.43
2022-11-27T09:55:24.759Z,75.38
2022-11-27T09:57:58.415Z,75.31
2022-11-27T10:00:26.505Z,75.68
2022-11-27T10:02:53.064Z,76.57
2022-11-27T10:05:23.168Z,76.59
2022-11-27T10:08:13.185Z,77.23
2022-11-27T10:10:44.274Z,77.25
2022-11-27T10:13:25.940Z,76.71
2022-11-27T10:15:58.924Z,77.56
2022-11-27T10:18:32.265Z,76.53
2022-11-27T10:21:03.138Z,77.20
2022-11-27T10:23:41.163Z,76.56
2022-11-27T10:26:15.649Z,75.60
2022-11-27T10:28:51.060Z,76.47
2022-11-27T10:31:26.051Z,74.81
2022-11-27T10:33:56.282Z,76.03
2022-11-27T10:36:28.171Z,76.76
2022-11-27T10:38:56.981Z,76.36
2022-11-27T10:41:48.266Z,76.24
2022-11-27T10:44:28.110Z,75.94
2022-11-27T10:47:01.179Z,76.55
2022-11-27T10:49:27.576Z,74.97
2022-11-27T10:51:54.017Z,76.34
2022-11-27T10:54:26.204Z,74.45
2022-11-27T10:57:17.966Z,75.10
2022-11-27T10:59:54.239Z,74.74
2022-11-27T11:02:30.582Z,74.34
2022-11-27T11:05:24.093Z,75.09
2022-11-27T11:07:54.906Z,74.88
2022-11-27T11:10:26.670Z,73.87
2022-11-27T11:13:05.135Z,73.72
2022-11-27T11:15:32.261Z,73.64
2022-11-27T11:18:00.004Z,73.56
2022-11-27T11:20:26.720Z,72.75
2022-11-27T11:22:53.523Z,71.94
2022-11-27T11:25:21.644Z,71.89
2022-11-27T11:27:50.447Z,72.11
2022-11-27T11:30:22.543Z,71.88
2022-11-27T11:32:50.405Z,72.30
2022-11-27T11:35:29.649Z,70.91
2022-11-27T11:37:57.148Z,71.10
2022-11-27T11:40:26.759Z,71.36
2022-11-27T11:42:55.081Z,71.46
2022-11-27T11:45:22.280Z,71.19
2022-11-27T11:47:50.650Z,71.38
2022-11-27T11:50:29.814Z,70.13
2022-11-27T11:53:02.074Z,69.73
2022-11-27T11:55:35.731Z,70.36
2022-11-27T11:58:33.924Z,70.18
2022-11-27T12:01:26.899Z,72.31
2022-11-27T12:04:10.825Z,71.42
2022-11-27T12:06:53.533Z,71.17
2022-11-27T12:09:32.426Z,70.66
2022-11-27T12:12:07.254Z,70.37
2022-11-27T12:14:43.435Z,68.42
2022-11-27T12:17:26.995Z,70.22
2022-11-27T12:20:13.027Z,71.46
2022-11-27T12:23:06.371Z,68.70
2022-11-27T12:25:37.577Z,70.98
2022-11-27T12:28:19.297Z,70.71
2022-11-27T12:30:54.790Z,69.32
2022-11-27T12:33:36.318Z,70.33
2022-11-27T12:36:12.406Z,69.91
2022-11-27T12:38:53.631Z,70.53
2022-11-27T12:41:59.544Z,68.88
2022-11-27T12:44:32.924Z,69.52
2022-11-27T12:47:04.594Z,69.30
2022-11-27T12:49:37.583Z,68.88
2022-11-27T12:52:12.233Z,67.90
2022-11-27T12:54:46.630Z,69.44
2022-11-27T12:57:18.561Z,69.60
2022-11-27T12:59:51.001Z,67.13
2022-11-27T13:02:28.299Z,71.08
2022-11-27T13:05:00.051Z,68.79
2022-11-27T13:07:31.560Z,67.95
2022-11-27T13:10:06.890Z,67.73
2022-11-27T13:12:38.038Z,67.19
2022-11-27T13:15:14.789Z,67.56
2022-11-27T13:17:43.716Z,67.37
2022-11-27T13:20:16.305Z,66.88
2022-11-27T13:22:43.463Z,67.33
2022-11-27T13:25:13.146Z,65.18
2022-11-27T13:27:44.000Z,66.49
2022-11-27T13:30:20.516Z,66.32
2022-11-27T13:32:49.512Z,67.37
2022-11-27T13:35:21.985Z,66.04
2022-11-27T13:37:56.104Z,67.26
2022-11-27T13:40:29.231Z,66.50
2022-11-27T13:42:58.796Z,66.22
2022-11-27T13:45:28.527Z,66.17
2022-11-27T13:47:56.629Z,65.29
2022-11-27T13:50:29.724Z,66.51
2022-11-27T13:53:00.210Z,66.08
2022-11-27T13:55:30.521Z,65.84
2022-11-27T13:57:59.147Z,67.55
2022-11-27T14:00:35.325Z,66.22
2022-11-27T14:03:02.149Z,66.55
2022-11-27T14:05:39.759Z,64.86
2022-11-27T14:08:17.208Z,66.11
2022-11-27T14:10:55.342Z,65.08
2022-11-27T14:13:27.361Z,65.37
2022-11-27T14:16:00.369Z,65.14
2022-11-27T14:18:28.035Z,64.11
2022-11-27T14:20:58.064Z,64.90
2022-11-27T14:23:30.144Z,63.03
2022-11-27T14:26:20.519Z,63.41
2022-11-27T14:28:51.390Z,64.50
2022-11-27T14:31:28.907Z,65.56
2022-11-27T14:36:42.395Z,65.94
2022-11-27T14:39:21.196Z,65.49
2022-11-27T14:41:57.704Z,66.60
2022-11-27T14:44:24.394Z,65.62
2022-11-27T14:46:51.537Z,64.91
2022-11-27T14:49:19.927Z,64.72
2022-11-27T14:51:47.045Z,65.17
2022-11-27T14:54:20.125Z,64.28
2022-11-27T14:56:46.923Z,64.21
2022-11-27T14:59:17.421Z,62.62
2022-11-27T15:01:44.739Z,63.63
2022-11-27T15:04:26.423Z,63.50
2022-11-27T15:06:54.509Z,63.15
2022-11-27T15:09:43.409Z,63.23
2022-11-27T15:12:17.407Z,62.90
2022-11-27T15:14:55.017Z,63.17
2022-11-27T15:17:25.284Z,61.58
2022-11-27T15:19:52.472Z,63.43
2022-11-27T15:22:19.008Z,62.28
2022-11-27T15:24:45.623Z,62.14
2022-11-27T15:27:18.634Z,63.34
2022-11-27T15:30:01.905Z,62.45
2022-11-27T15:32:42.144Z,61.86
2022-11-27T15:35:14.318Z,62.07
2022-11-27T15:37:41.028Z,62.11
2022-11-27T15:40:23.582Z,60.83
2022-11-27T15:42:49.986Z,61.59
2022-11-27T15:45:18.178Z,62.17
2022-11-27T15:47:44.657Z,62.36
2022-11-27T15:50:13.942Z,64.26
2022-11-27T15:52:40.428Z,62.37
2022-11-27T15:55:12.262Z,62.86
2022-11-27T15:57:38.644Z,61.90
2022-11-27T16:00:06.730Z,63.09
2022-11-27T16:02:34.613Z,62.84
2022-11-27T16:05:01.047Z,63.58
2022-11-27T16:07:27.550Z,62.98
2022-11-27T16:09:54.145Z,63.56
2022-11-27T16:12:20.513Z,62.85
2022-11-27T16:14:46.925Z,63.65
2022-11-27T16:17:13.328Z,64.05
2022-11-27T16:19:41.211Z,62.23
2022-11-27T16:22:07.779Z,63.63
2022-11-27T16:24:34.221Z,64.26
2022-11-27T16:27:00.635Z,64.15
2022-11-27T16:29:27.043Z,63.18
2022-11-27T16:31:53.846Z,62.86
2022-11-27T16:34:20.315Z,63.59
2022-11-27T16:36:48.097Z,63.83
2022-11-27T16:39:16.412Z,63.36
2022-11-27T16:41:42.824Z,65.13
2022-11-27T16:44:11.007Z,65.18
2022-11-27T16:46:37.442Z,64.88
2022-11-27T16:49:04.910Z,64.92
2022-11-27T16:51:31.322Z,65.08
2022-11-27T16:54:00.849Z,64.33
2022-11-27T16:56:28.907Z,64.19
2022-11-27T16:59:02.285Z,63.35
2022-11-27T17:01:30.723Z,62.34
2022-11-27T17:03:57.614Z,64.50
2022-11-27T17:06:26.404Z,63.76
2022-11-27T17:08:54.088Z,63.20
2022-11-27T17:11:23.538Z,63.99
2022-11-27T17:13:51.667Z,63.53
2022-11-27T17:16:19.164Z,63.59
2022-11-27T17:18:46.263Z,62.43
2022-11-27T17:21:15.673Z,62.96
2022-11-27T17:23:42.124Z,61.67
2022-11-27T17:26:09.649Z,62.80
2022-11-27T17:28:37.947Z,61.84
2022-11-27T17:31:09.504Z,62.44
2022-11-27T17:33:36.041Z,62.65
2022-11-27T17:36:02.859Z,62.09
2022-11-27T17:38:29.303Z,62.38
2022-11-27T17:41:00.171Z,61.96
2022-11-27T17:43:26.592Z,62.78
2022-11-27T17:45:54.417Z,62.67
2022-11-27T17:48:20.857Z,62.26
2022-11-27T17:50:47.296Z,60.84
2022-11-27T17:53:13.762Z,60.50
2022-11-27T17:55:40.205Z,61.99
2022-11-27T17:58:06.719Z,62.50
2022-11-27T18:00:34.065Z,62.16
2022-11-27T18:03:07.131Z,62.24
2022-11-27T18:05:36.792Z,61.39
2022-11-27T18:08:03.582Z,62.04
2022-11-27T18:10:30.024Z,61.02
2022-11-27T18:12:56.492Z,62.35
2022-11-27T18:15:23.554Z,60.95
2022-11-27T18:17:50.000Z,60.58
2022-11-27T18:20:18.082Z,60.26
2022-11-27T18:22:44.506Z,61.07
2022-11-27T18:25:10.943Z,62.25
2022-11-27T18:27:37.388Z,62.14
2022-11-27T18:30:05.424Z,61.91
2022-11-27T18:32:31.919Z,60.65
2022-11-27T18:34:58.384Z,61.05
2022-11-27T18:37:26.387Z,61.25
2022-11-27T18:39:52.807Z,61.85
2022-11-27T18:42:19.441Z,61.33
2022-11-27T18:44:45.930Z,60.62
2022-11-27T18:47:14.396Z,61.02
2022-11-27T18:49:41.187Z,60.03
2022-11-27T18:52:08.257Z,60.03
2022-11-27T18:54:36.236Z,60.43
2022-11-27T18:57:03.209Z,60.47
2022-11-27T18:59:29.630Z,59.60
2022-11-27T19:01:56.348Z,58.56
2022-11-27T19:04:22.843Z,60.02
2022-11-27T19:06:49.313Z,59.23
2022-11-27T19:09:15.856Z,60.49
2022-11-27T19:11:43.661Z,58.45
2022-11-27T19:14:10.554Z,57.99
2022-11-27T19:16:38.720Z,59.88
2022-11-27T19:19:05.552Z,59.49
2022-11-27T19:21:33.186Z,58.49
2022-11-27T19:24:01.426Z,58.96
2022-11-27T19:26:30.768Z,58.91
2022-11-27T19:29:00.566Z,59.82
2022-11-27T19:31:27.097Z,59.59
2022-11-27T19:33:55.052Z,59.66
2022-11-27T19:36:22.745Z,59.17
2022-11-27T19:38:54.515Z,58.86
2022-11-27T19:41:20.995Z,59.30
2022-11-27T19:43:47.463Z,58.46
2022-11-27T19:46:17.628Z,58.73
2022-11-27T19:48:44.593Z,58.16
2022-11-27T19:51:11.858Z,58.24
2022-11-27T19:53:39.205Z,59.13
2022-11-27T19:56:06.415Z,58.62
2022-11-27T19:58:33.218Z,58.91
2022-11-27T20:01:05.433Z,58.59
2022-11-27T20:03:33.314Z,60.06
2022-11-27T20:06:05.341Z,59.36
2022-11-27T20:08:31.813Z,59.03
2022-11-27T20:10:58.415Z,59.11
2022-11-27T20:13:24.940Z,58.34
2022-11-27T20:15:51.434Z,58.42
2022-11-27T20:18:18.102Z,57.64
2022-11-27T20:20:46.032Z,59.66
2022-11-27T20:23:12.489Z,60.27
2022-11-27T20:25:39.338Z,58.19
2022-11-27T20:28:05.812Z,59.16
2022-11-27T20:30:32.425Z,59.77
2022-11-27T20:33:01.931Z,59.04
2022-11-27T20:35:31.114Z,59.13
2022-11-27T20:37:58.893Z,59.58
2022-11-27T20:40:25.358Z,58.50
2022-11-27T20:42:51.785Z,58.95
2022-11-27T20:45:20.483Z,59.05
2022-11-27T20:47:47.199Z,59.15
2022-11-27T20:50:14.234Z,58.58
2022-11-27T20:52:40.856Z,59.40
2022-11-27T20:55:08.953Z,59.06
2022-11-27T20:57:35.487Z,59.04
2022-11-27T21:00:02.257Z,59.62
2022-11-27T21:02:28.783Z,59.84
2022-11-27T21:04:55.259Z,59.93
2022-11-27T21:07:21.737Z,60.84
2022-11-27T21:09:48.222Z,60.04
2022-11-27T21:12:15.982Z,60.09
2022-11-27T21:14:43.751Z,60.38
2022-11-27T21:17:10.189Z,60.36
2022-11-27T21:19:36.652Z,60.03
2022-11-27T21:22:03.310Z,59.56
2022-11-27T21:24:29.794Z,60.53
2022-11-27T21:26:56.535Z,61.05
2022-11-27T21:29:24.413Z,60.59
2022-11-27T21:31:51.293Z,60.59
2022-11-27T21:34:17.861Z,60.16
2022-11-27T21:36:44.345Z,59.60
2022-11-27T21:39:12.509Z,60.68
2022-11-27T21:41:39.153Z,59.30
2022-11-27T21:44:05.984Z,60.11
2022-11-27T21:46:33.714Z,60.12
2022-11-27T21:49:00.755Z,59.22
2022-11-27T21:51:28.212Z,59.21
2022-11-27T21:53:55.654Z,58.85
2022-11-27T21:56:24.114Z,58.16
2022-11-27T21:58:50.997Z,58.35
2022-11-27T22:01:19.672Z,59.34
2022-11-27T22:03:48.186Z,59.78
2022-11-27T22:06:15.426Z,59.08
2022-11-27T22:08:44.454Z,59.38
2022-11-27T22:11:12.419Z,58.70
2022-11-27T22:13:38.937Z,58.80
2022-11-27T22:16:09.533Z,58.03
2022-11-27T22:18:35.994Z,58.65
2022-11-27T22:21:04.241Z,59.33
2022-11-27T22:23:30.987Z,58.99
2022-11-27T22:26:00.311Z,59.11
2022-11-27T22:28:26.745Z,58.42
2022-11-27T22:30:53.218Z,59.05
2022-11-27T22:33:19.681Z,58.68
2022-11-27T22:35:46.431Z,58.50
2022-11-27T22:38:14.178Z,57.94
2022-11-27T22:40:43.680Z,56.95
2022-11-27T22:43:10.546Z,59.71
2022-11-27T22:45:38.369Z,57.91
2022-11-27T22:48:05.762Z,60.24
2022-11-27T22:50:32.246Z,59.44
2022-11-27T22:52:58.645Z,59.24
2022-11-27T22:55:26.408Z,59.21
2022-11-27T22:57:52.868Z,59.44
2022-11-27T23:00:20.016Z,59.50
2022-11-27T23:02:46.535Z,59.40
2022-11-27T23:05:13.168Z,60.28
2022-11-27T23:07:39.695Z,58.96
2022-11-27T23:10:07.288Z,61.30
2022-11-27T23:12:35.442Z,61.09
2022-11-27T23:15:01.860Z,61.98
2022-11-27T23:17:28.877Z,62.33
2022-11-27T23:19:55.305Z,61.07
2022-11-27T23:22:21.711Z,62.89
2022-11-27T23:24:48.128Z,63.80
2022-11-27T23:27:14.562Z,65.38
2022-11-27T23:29:42.289Z,67.14
2022-11-27T23:32:08.746Z,67.90
2022-11-27T23:34:35.237Z,69.07
2022-11-27T23:37:01.624Z,69.46
2022-11-27T23:39:28.020Z,69.43
2022-11-27T23:41:54.454Z,68.22
2022-11-27T23:44:20.919Z,68.66
2022-11-27T23:46:48.646Z,67.26
2022-11-27T23:49:15.179Z,69.81
2022-11-27T23:51:41.598Z,70.94
2022-11-27T23:54:09.874Z,73.88
2022-11-27T23:56:38.010Z,71.88
2022-11-27T23:59:05.123Z,74.81
